createdAt,value
2023-02-05T00:02:57.734Z,1027.1
2023-02-05T00:05:57.730Z,1027.08
2023-02-05T00:08:57.726Z,1027.09
2023-02-05T00:11:57.720Z,1027.11
2023-02-05T00:14:57.724Z,1027.07
2023-02-05T00:17:57.728Z,1027.06
2023-02-05T00:20:57.718Z,1027.04
2023-02-05T00:23:57.718Z,1027.03
2023-02-05T00:26:57.726Z,1027.06
2023-02-05T00:29:57.725Z,1027.06
2023-02-05T00:32:57.731Z,1027.04
2023-02-05T00:35:57.737Z,1027.03
2023-02-05T00:38:57.722Z,1027.01
2023-02-05T00:41:57.726Z,1026.95
2023-02-05T00:44:57.723Z,1026.91
2023-02-05T00:47:57.723Z,1026.86
2023-02-05T00:50:57.738Z,1026.77
2023-02-05T00:53:57.743Z,1026.76
2023-02-05T00:56:57.722Z,1026.78
2023-02-05T00:59:57.732Z,1026.8
2023-02-05T01:02:57.726Z,1026.83
2023-02-05T01:05:57.727Z,1026.79
2023-02-05T01:08:57.729Z,1026.78
2023-02-05T01:11:57.730Z,1026.72
2023-02-05T01:14:57.736Z,1026.64
2023-02-05T01:17:57.729Z,1026.58
2023-02-05T01:20:57.731Z,1026.5
2023-02-05T01:23:57.757Z,1026.47
2023-02-05T01:26:57.732Z,1026.49
2023-02-05T01:29:57.737Z,1026.47
2023-02-05T01:32:57.732Z,1026.5
2023-02-05T01:35:57.730Z,1026.52
2023-02-05T01:38:57.738Z,1026.59
2023-02-05T01:41:57.730Z,1026.59
2023-02-05T01:44:57.734Z,1026.5
2023-02-05T01:47:57.737Z,1026.35
2023-02-05T01:50:57.726Z,1026.23
2023-02-05T01:53:57.768Z,1026.14
2023-02-05T01:56:57.735Z,1026.11
2023-02-05T01:59:57.732Z,1026.11
2023-02-05T02:02:57.728Z,1026.08
2023-02-05T02:05:57.745Z,1026.12
2023-02-05T02:08:57.722Z,1026.15
2023-02-05T02:11:57.728Z,1026.06
2023-02-05T02:14:57.733Z,1026.06
2023-02-05T02:17:57.741Z,1025.99
2023-02-05T02:20:57.728Z,1026
2023-02-05T02:23:57.728Z,1025.99
2023-02-05T02:26:57.728Z,1025.91
2023-02-05T02:29:57.744Z,1025.84
2023-02-05T02:32:57.734Z,1025.87
2023-02-05T02:35:57.728Z,1025.84
2023-02-05T02:38:57.770Z,1025.77
2023-02-05T02:41:57.731Z,1025.7
2023-02-05T02:44:57.734Z,1025.66
2023-02-05T02:47:57.736Z,1025.72
2023-02-05T02:50:57.735Z,1025.74
2023-02-05T02:53:57.743Z,1025.72
2023-02-05T02:56:57.738Z,1025.67
2023-02-05T02:59:57.757Z,1025.58
2023-02-05T03:02:57.735Z,1025.59
2023-02-05T03:05:57.734Z,1025.57
2023-02-05T03:08:57.738Z,1025.51
2023-02-05T03:11:57.741Z,1025.52
2023-02-05T03:14:57.743Z,1025.55
2023-02-05T03:17:57.800Z,1025.46
2023-02-05T03:20:57.743Z,1025.52
2023-02-05T03:23:57.736Z,1025.51
2023-02-05T03:26:57.747Z,1025.42
2023-02-05T03:29:57.737Z,1025.45
2023-02-05T03:32:57.754Z,1025.45
2023-02-05T03:35:57.736Z,1025.35
2023-02-05T03:38:57.743Z,1025.25
2023-02-05T03:41:57.758Z,1025.33
2023-02-05T03:44:57.745Z,1025.29
2023-02-05T03:47:57.736Z,1025.24
2023-02-05T03:50:57.744Z,1025.22
2023-02-05T03:53:57.742Z,1025.29
2023-02-05T03:56:57.737Z,1025.31
2023-02-05T03:59:57.730Z,1025.38
2023-02-05T04:02:57.737Z,1025.48
2023-02-05T04:05:57.738Z,1025.49
2023-02-05T04:08:57.735Z,1025.48
2023-02-05T04:11:57.732Z,1025.41
2023-02-05T04:14:57.742Z,1025.42
2023-02-05T04:17:57.742Z,1025.47
2023-02-05T04:20:57.741Z,1025.39
2023-02-05T04:23:57.790Z,1025.37
2023-02-05T04:26:57.742Z,1025.35
2023-02-05T04:29:57.735Z,1025.31
2023-02-05T04:32:57.741Z,1025.35
2023-02-05T04:35:57.738Z,1025.36
2023-02-05T04:38:57.751Z,1025.29
2023-02-05T04:41:57.748Z,1025.28
2023-02-05T04:44:57.751Z,1025.26
2023-02-05T04:47:57.743Z,1025.1
2023-02-05T04:50:57.746Z,1024.98
2023-02-05T04:53:57.746Z,1024.94
2023-02-05T04:56:57.750Z,1024.99
2023-02-05T04:59:57.756Z,1025.07
2023-02-05T05:02:57.753Z,1025.04
2023-02-05T05:05:57.747Z,1024.99
2023-02-05T05:08:57.762Z,1025
2023-02-05T05:11:57.746Z,1025.09
2023-02-05T05:14:57.748Z,1025.19
2023-02-05T05:17:57.753Z,1025.2
2023-02-05T05:20:57.750Z,1025.27
2023-02-05T05:23:57.759Z,1025.28
2023-02-05T05:26:57.742Z,1025.3
2023-02-05T05:29:57.752Z,1025.29
2023-02-05T05:32:57.748Z,1025.31
2023-02-05T05:35:57.752Z,1025.26
2023-02-05T05:38:57.752Z,1025.2
2023-02-05T05:41:57.755Z,1025.19
2023-02-05T05:44:57.750Z,1025.22
2023-02-05T05:47:57.755Z,1025.21
2023-02-05T05:50:57.748Z,1025.17
2023-02-05T05:53:57.771Z,1025.12
2023-02-05T05:56:57.752Z,1025.13
2023-02-05T05:59:57.756Z,1025.2
2023-02-05T06:02:57.753Z,1025.32
2023-02-05T06:05:57.753Z,1025.44
2023-02-05T06:08:57.753Z,1025.4
2023-02-05T06:11:57.749Z,1025.34
2023-02-05T06:14:57.751Z,1025.4
2023-02-05T06:17:57.755Z,1025.3
2023-02-05T06:20:57.749Z,1025.21
2023-02-05T06:23:57.748Z,1025.14
2023-02-05T06:26:57.751Z,1025.08
2023-02-05T06:29:57.756Z,1024.94
2023-02-05T06:32:57.753Z,1024.94
2023-02-05T06:35:57.752Z,1024.9
2023-02-05T06:38:57.761Z,1024.97
2023-02-05T06:41:57.758Z,1024.97
2023-02-05T06:44:57.757Z,1024.94
2023-02-05T06:47:57.760Z,1024.94
2023-02-05T06:50:57.754Z,1024.93
2023-02-05T06:53:57.760Z,1024.96
2023-02-05T06:56:57.753Z,1025.02
2023-02-05T06:59:57.758Z,1025.11
2023-02-05T07:02:57.823Z,1025.19
2023-02-05T07:05:57.768Z,1025.22
2023-02-05T07:08:57.762Z,1025.28
2023-02-05T07:11:57.765Z,1025.32
2023-02-05T07:14:57.766Z,1025.32
2023-02-05T07:17:57.766Z,1025.36
2023-02-05T07:20:57.761Z,1025.31
2023-02-05T07:23:57.764Z,1025.19
2023-02-05T07:26:57.766Z,1024.84
2023-02-05T07:29:57.772Z,1024.9
2023-02-05T07:32:57.773Z,1024.85
2023-02-05T07:35:57.767Z,1024.62
2023-02-05T07:38:57.763Z,1024.47
2023-02-05T07:41:57.763Z,1024.38
2023-02-05T07:44:57.763Z,1024.31
2023-02-05T07:47:57.764Z,1024.46
2023-02-05T07:50:57.760Z,1024.69
2023-02-05T07:53:57.765Z,1024.78
2023-02-05T07:56:57.764Z,1024.8
2023-02-05T07:59:57.762Z,1024.77
2023-02-05T08:02:57.768Z,1024.78
2023-02-05T08:05:57.765Z,1024.77
2023-02-05T08:08:57.766Z,1024.71
2023-02-05T08:11:57.768Z,1024.7
2023-02-05T08:14:57.767Z,1024.67
2023-02-05T08:17:57.763Z,1024.69
2023-02-05T08:20:57.762Z,1024.58
2023-02-05T08:23:57.769Z,1024.53
2023-02-05T08:26:57.757Z,1024.45
2023-02-05T08:29:57.765Z,1024.48
2023-02-05T08:32:57.758Z,1024.46
2023-02-05T08:35:57.775Z,1024.49
2023-02-05T08:38:57.772Z,1024.51
2023-02-05T08:41:57.760Z,1024.53
2023-02-05T08:44:57.762Z,1024.5
2023-02-05T08:47:57.766Z,1024.5
2023-02-05T08:50:57.772Z,1024.58
2023-02-05T08:53:57.764Z,1024.54
2023-02-05T08:56:57.765Z,1024.45
2023-02-05T08:59:57.764Z,1024.37
2023-02-05T09:02:57.769Z,1024.28
2023-02-05T09:05:57.764Z,1024.2
2023-02-05T09:08:57.763Z,1024.19
2023-02-05T09:11:57.765Z,1024.17
2023-02-05T09:14:57.772Z,1024.09
2023-02-05T09:17:57.767Z,1024.08
2023-02-05T09:20:57.763Z,1024.08
2023-02-05T09:23:57.768Z,1024.14
2023-02-05T09:26:57.780Z,1024.11
2023-02-05T09:29:57.786Z,1024.15
2023-02-05T09:32:57.767Z,1024.12
2023-02-05T09:35:57.773Z,1024.14
2023-02-05T09:39:12.245Z,1024.13
2023-02-05T09:41:57.799Z,1024.12
2023-02-05T09:44:57.771Z,1024.05
2023-02-05T09:47:57.776Z,1024.1
2023-02-05T09:50:58.093Z,1024.04
2023-02-05T09:53:57.773Z,1023.97
2023-02-05T09:56:57.774Z,1023.91
2023-02-05T09:59:57.773Z,1023.91
2023-02-05T10:02:57.772Z,1023.9
2023-02-05T10:05:57.772Z,1023.86
2023-02-05T10:08:57.775Z,1023.84
2023-02-05T10:11:57.771Z,1023.82
2023-02-05T10:14:57.772Z,1023.82
2023-02-05T10:17:57.768Z,1023.87
2023-02-05T10:20:57.782Z,1023.83
2023-02-05T10:23:57.775Z,1023.74
2023-02-05T10:26:57.765Z,1023.73
2023-02-05T10:29:57.774Z,1023.72
2023-02-05T10:32:57.856Z,1023.71
2023-02-05T10:35:57.792Z,1023.73
2023-02-05T10:38:57.784Z,1023.7
2023-02-05T10:41:57.787Z,1023.66
2023-02-05T10:44:57.784Z,1023.63
2023-02-05T10:47:57.778Z,1023.62
2023-02-05T10:50:57.784Z,1023.57
2023-02-05T10:53:57.783Z,1023.54
2023-02-05T10:56:57.787Z,1023.55
2023-02-05T10:59:57.818Z,1023.57
2023-02-05T11:02:57.838Z,1023.51
2023-02-05T11:05:57.809Z,1023.48
2023-02-05T11:08:57.795Z,1023.47
2023-02-05T11:11:57.788Z,1023.42
2023-02-05T11:14:57.794Z,1023.4
2023-02-05T11:17:57.786Z,1023.39
2023-02-05T11:20:57.788Z,1023.39
2023-02-05T11:23:57.790Z,1023.37
2023-02-05T11:26:57.782Z,1023.31
2023-02-05T11:29:57.790Z,1023.24
2023-02-05T11:32:57.789Z,1023.19
2023-02-05T11:35:57.792Z,1023.17
2023-02-05T11:38:57.797Z,1023.16
2023-02-05T11:41:57.787Z,1023.15
2023-02-05T11:44:57.785Z,1023.14
2023-02-05T11:47:57.785Z,1023.15
2023-02-05T11:50:57.789Z,1023.18
2023-02-05T11:53:57.796Z,1023.19
2023-02-05T11:56:57.790Z,1023.19
2023-02-05T11:59:57.807Z,1023.19
2023-02-05T12:02:57.806Z,1023.16
2023-02-05T12:05:57.790Z,1023.18
2023-02-05T12:08:57.797Z,1023.19
2023-02-05T12:11:57.793Z,1023.15
2023-02-05T12:14:57.794Z,1023.12
2023-02-05T12:17:57.796Z,1023.11
2023-02-05T12:20:57.800Z,1023.07
2023-02-05T12:23:57.799Z,1023.08
2023-02-05T12:26:57.798Z,1023.09
2023-02-05T12:29:57.797Z,1023.06
2023-02-05T12:32:57.796Z,1023.01
2023-02-05T12:35:57.796Z,1022.96
2023-02-05T12:38:57.795Z,1022.92
2023-02-05T12:41:57.787Z,1022.92
2023-02-05T12:44:57.789Z,1022.88
2023-02-05T12:47:57.786Z,1022.87
2023-02-05T12:50:57.800Z,1022.87
2023-02-05T12:53:57.788Z,1022.91
2023-02-05T12:56:57.790Z,1022.89
2023-02-05T12:59:57.795Z,1022.93
2023-02-05T13:02:57.795Z,1022.88
2023-02-05T13:05:57.793Z,1022.87
2023-02-05T13:08:57.794Z,1022.83
2023-02-05T13:11:57.792Z,1022.79
2023-02-05T13:14:57.796Z,1022.76
2023-02-05T13:17:57.796Z,1022.72
2023-02-05T13:20:57.801Z,1022.66
2023-02-05T13:23:57.801Z,1022.67
2023-02-05T13:26:57.795Z,1022.62
2023-02-05T13:29:57.796Z,1022.67
2023-02-05T13:32:57.795Z,1022.62
2023-02-05T13:35:57.800Z,1022.62
2023-02-05T13:38:57.804Z,1022.55
2023-02-05T13:41:57.793Z,1022.56
2023-02-05T13:44:57.790Z,1022.47
2023-02-05T13:47:57.817Z,1022.44
2023-02-05T13:50:57.794Z,1022.5
2023-02-05T13:53:57.793Z,1022.58
2023-02-05T13:56:57.800Z,1022.64
2023-02-05T13:59:57.794Z,1022.7
2023-02-05T14:02:57.789Z,1022.76
2023-02-05T14:05:57.793Z,1022.79
2023-02-05T14:08:57.799Z,1022.8
2023-02-05T14:11:57.800Z,1022.81
2023-02-05T14:14:57.794Z,1022.9
2023-02-05T14:17:57.799Z,1022.94
2023-02-05T14:20:57.800Z,1023.02
2023-02-05T14:23:57.807Z,1023.06
2023-02-05T14:26:57.802Z,1023.11
2023-02-05T14:29:57.793Z,1023.08
2023-02-05T14:32:57.803Z,1023.08
2023-02-05T14:35:57.801Z,1023.09
2023-02-05T14:38:57.795Z,1023.09
2023-02-05T14:41:57.798Z,1023.08
2023-02-05T14:44:57.804Z,1023.1
2023-02-05T14:47:57.799Z,1023.22
2023-02-05T14:50:57.797Z,1023.27
2023-02-05T14:53:57.800Z,1023.28
2023-02-05T14:56:57.802Z,1023.31
2023-02-05T14:59:57.812Z,1023.42
2023-02-05T15:02:57.826Z,1023.46
2023-02-05T15:05:57.792Z,1023.51
2023-02-05T15:08:57.796Z,1023.53
2023-02-05T15:11:57.794Z,1023.56
2023-02-05T15:14:57.799Z,1023.56
2023-02-05T15:17:57.797Z,1023.66
2023-02-05T15:20:57.807Z,1023.65
2023-02-05T15:23:57.797Z,1023.67
2023-02-05T15:26:57.803Z,1023.75
2023-02-05T15:29:57.805Z,1023.7
2023-02-05T15:32:57.809Z,1023.73
2023-02-05T15:35:57.798Z,1023.77
2023-02-05T15:38:57.804Z,1023.83
2023-02-05T15:41:57.812Z,1023.91
2023-02-05T15:44:57.798Z,1023.99
2023-02-05T15:47:57.808Z,1024.02
2023-02-05T15:50:57.809Z,1024.01
2023-02-05T15:53:57.812Z,1023.98
2023-02-05T15:56:57.814Z,1024.01
2023-02-05T15:59:57.805Z,1024.02
2023-02-05T16:02:57.822Z,1024.07
2023-02-05T16:05:57.810Z,1024.07
2023-02-05T16:08:57.806Z,1024.12
2023-02-05T16:11:57.812Z,1024.18
2023-02-05T16:14:57.805Z,1024.21
2023-02-05T16:17:57.810Z,1024.23
2023-02-05T16:20:57.806Z,1024.37
2023-02-05T16:23:57.828Z,1024.4
2023-02-05T16:26:57.800Z,1024.45
2023-02-05T16:29:57.807Z,1024.5
2023-02-05T16:32:57.813Z,1024.57
2023-02-05T16:35:57.803Z,1024.62
2023-02-05T16:38:57.804Z,1024.73
2023-02-05T16:41:57.812Z,1024.84
2023-02-05T16:44:57.803Z,1024.88
2023-02-05T16:47:57.795Z,1024.93
2023-02-05T16:50:57.812Z,1024.99
2023-02-05T16:53:57.805Z,1025.04
2023-02-05T16:56:57.803Z,1025.1
2023-02-05T16:59:57.809Z,1025.12
2023-02-05T17:02:57.809Z,1025.02
2023-02-05T17:05:57.809Z,1025.06
2023-02-05T17:08:57.822Z,1025.06
2023-02-05T17:11:57.818Z,1025.02
2023-02-05T17:14:57.812Z,1025.12
2023-02-05T17:17:57.810Z,1025.16
2023-02-05T17:20:57.813Z,1025.23
2023-02-05T17:23:57.815Z,1025.29
2023-02-05T17:26:57.822Z,1025.31
2023-02-05T17:29:57.881Z,1025.35
2023-02-05T17:32:57.826Z,1025.32
2023-02-05T17:35:57.831Z,1025.37
2023-02-05T17:38:57.823Z,1025.43
2023-02-05T17:41:57.817Z,1025.45
2023-02-05T17:44:57.819Z,1025.56
2023-02-05T17:47:57.825Z,1025.63
2023-02-05T17:50:57.879Z,1025.54
2023-02-05T17:53:57.824Z,1025.56
2023-02-05T17:56:57.821Z,1025.54
2023-02-05T17:59:57.827Z,1025.61
2023-02-05T18:02:57.823Z,1025.73
2023-02-05T18:05:57.820Z,1025.79
2023-02-05T18:08:57.820Z,1025.75
2023-02-05T18:11:57.820Z,1025.87
2023-02-05T18:14:57.821Z,1025.86
2023-02-05T18:17:57.828Z,1025.89
2023-02-05T18:20:57.818Z,1025.86
2023-02-05T18:23:57.824Z,1025.86
2023-02-05T18:26:57.818Z,1025.86
2023-02-05T18:29:57.818Z,1025.95
2023-02-05T18:32:57.826Z,1025.92
2023-02-05T18:35:57.822Z,1025.89
2023-02-05T18:38:57.827Z,1025.93
2023-02-05T18:41:57.838Z,1025.97
2023-02-05T18:44:57.817Z,1026.04
2023-02-05T18:47:57.815Z,1026.1
2023-02-05T18:50:57.819Z,1026.13
2023-02-05T18:53:57.816Z,1026.16
2023-02-05T18:56:57.842Z,1026.17
2023-02-05T18:59:57.823Z,1026.23
2023-02-05T19:02:57.852Z,1026.19
2023-02-05T19:05:57.836Z,1026.22
2023-02-05T19:08:57.828Z,1026.22
2023-02-05T19:11:57.821Z,1026.23
2023-02-05T19:14:57.816Z,1026.2
2023-02-05T19:17:59.383Z,1026.26
2023-02-05T19:20:58.567Z,1026.3
2023-02-05T19:23:58.565Z,1026.37
2023-02-05T19:26:58.564Z,1026.38
2023-02-05T19:29:58.559Z,1026.37
2023-02-05T19:32:58.564Z,1026.56
2023-02-05T19:35:58.566Z,1026.54
2023-02-05T19:38:58.550Z,1026.59
2023-02-05T19:41:58.572Z,1026.68
2023-02-05T19:44:58.566Z,1026.67
2023-02-05T19:47:58.677Z,1026.66
2023-02-05T19:50:58.578Z,1026.65
2023-02-05T19:53:58.588Z,1026.65
2023-02-05T19:56:58.578Z,1026.64
2023-02-05T19:59:58.591Z,1026.64
2023-02-05T20:02:58.610Z,1026.66
2023-02-05T20:05:58.598Z,1026.58
2023-02-05T20:08:58.596Z,1026.6
2023-02-05T20:11:58.593Z,1026.72
2023-02-05T20:14:58.594Z,1026.69
2023-02-05T20:17:58.727Z,1026.67
2023-02-05T20:20:58.585Z,1026.68
2023-02-05T20:23:58.596Z,1026.75
2023-02-05T20:26:58.589Z,1026.86
2023-02-05T20:29:58.599Z,1026.95
2023-02-05T20:32:58.593Z,1026.97
2023-02-05T20:35:58.641Z,1026.96
2023-02-05T20:38:58.601Z,1027.01
2023-02-05T20:41:58.598Z,1027.02
2023-02-05T20:44:58.595Z,1027.03
2023-02-05T20:47:58.609Z,1027.12
2023-02-05T20:50:58.596Z,1027.14
2023-02-05T20:53:58.620Z,1027.14
2023-02-05T20:56:58.616Z,1027.13
2023-02-05T20:59:58.592Z,1027.17
2023-02-05T21:02:58.594Z,1027.2
2023-02-05T21:05:58.611Z,1027.22
2023-02-05T21:08:58.602Z,1027.21
2023-02-05T21:11:58.613Z,1027.15
2023-02-05T21:14:58.604Z,1027.17
2023-02-05T21:17:58.602Z,1027.18
2023-02-05T21:20:58.605Z,1027.26
2023-02-05T21:23:58.603Z,1027.35
2023-02-05T21:26:58.608Z,1027.44
2023-02-05T21:29:58.600Z,1027.53
2023-02-05T21:32:58.603Z,1027.63
2023-02-05T21:35:58.605Z,1027.7
2023-02-05T21:38:58.605Z,1027.66
2023-02-05T21:41:58.603Z,1027.66
2023-02-05T21:44:58.610Z,1027.66
2023-02-05T21:47:58.605Z,1027.61
2023-02-05T21:50:58.611Z,1027.71
2023-02-05T21:53:58.611Z,1027.76
2023-02-05T21:56:58.604Z,1027.83
2023-02-05T21:59:58.615Z,1027.84
2023-02-05T22:02:58.614Z,1027.85
2023-02-05T22:05:58.609Z,1027.84
2023-02-05T22:08:58.611Z,1027.85
2023-02-05T22:11:58.617Z,1027.84
2023-02-05T22:14:58.607Z,1027.88
2023-02-05T22:17:58.607Z,1027.96
2023-02-05T22:20:58.621Z,1028.04
2023-02-05T22:23:58.619Z,1028.01
2023-02-05T22:26:58.624Z,1028.08
2023-02-05T22:29:58.620Z,1028.17
2023-02-05T22:32:58.612Z,1028.23
2023-02-05T22:35:58.622Z,1028.22
2023-02-05T22:38:58.615Z,1028.24
2023-02-05T22:41:58.606Z,1028.26
2023-02-05T22:44:58.612Z,1028.27
2023-02-05T22:47:58.622Z,1028.29
2023-02-05T22:50:58.634Z,1028.29
2023-02-05T22:53:58.629Z,1028.27
2023-02-05T22:56:58.622Z,1028.23
2023-02-05T22:59:58.611Z,1028.26
2023-02-05T23:02:58.618Z,1028.26
2023-02-05T23:05:58.610Z,1028.33
2023-02-05T23:08:58.611Z,1028.35
2023-02-05T23:11:58.611Z,1028.36
2023-02-05T23:14:58.608Z,1028.34
2023-02-05T23:17:58.613Z,1028.41
2023-02-05T23:20:58.611Z,1028.39
2023-02-05T23:23:58.625Z,1028.39
2023-02-05T23:26:58.616Z,1028.36
2023-02-05T23:29:58.610Z,1028.36
2023-02-05T23:32:58.615Z,1028.33
2023-02-05T23:35:58.618Z,1028.3
2023-02-05T23:38:58.618Z,1028.29
2023-02-05T23:41:58.618Z,1028.29
2023-02-05T23:44:58.625Z,1028.31
2023-02-05T23:47:58.620Z,1028.34
2023-02-05T23:50:58.628Z,1028.4
2023-02-05T23:53:58.623Z,1028.43
2023-02-05T23:56:58.621Z,1028.4
2023-02-05T23:59:58.621Z,1028.38
